Flight Track Log - Related Links

Times and Time Zones

All times are in EDT time to prevent confusion due to time zone crossing. See the SWA429 flight status page for this flight to view local times or setup timezone preferences in your user account.

Time Position Orientation Groundspeed Altitude Reporting Facility
EDT Latitude Longitude Course Direction KTS MPH feet Rate Location/Type
Thu 11:33:33 AM 41.7500 -87.7000 167° South 191 220 2,700  Level Chicago TRACON
Thu 11:35:58 AM 41.6000 -87.6539 167° South 268 308 11,100 2,986 Climbing Chicago Center
Thu 11:37:00 AM 41.5192 -87.6156 160° South 304 350 13,000 2,341 Climbing Chicago Center
Thu 11:38:01 AM 41.4289 -87.5747 161° South 334 384 15,900 3,073 Climbing Chicago Center
Thu 11:39:03 AM 41.3269 -87.5558 172° South 364 419 19,300 2,903 Climbing Chicago Center
Thu 11:40:05 AM 41.2236 -87.5372 172° South 372 428 21,900 2,323 Climbing Chicago Center
Thu 11:41:07 AM 41.1144 -87.5011 166° South 405 466 24,100 2,613 Climbing Chicago Center
Thu 11:42:09 AM 41.0086 -87.4417 157° South 413 475 27,300 2,927 Climbing Chicago Center
Thu 11:43:10 AM 40.8847 -87.3978 165° South 384 442 30,100 2,049 Climbing Chicago Center
Thu 11:44:12 AM 40.7786 -87.3639 166° South 390 449 31,500 1,258 Climbing Chicago Center
Thu 11:45:14 AM 40.6656 -87.3289 167° South 412 474 32,700 1,113 Climbing Chicago Center
Thu 11:46:16 AM 40.5478 -87.2911 166° South 434 499 33,800 1,073 Climbing Chicago Center
Thu 11:47:17 AM 40.4122 -87.2492 167° South 451 519 34,900 1,024 Climbing Chicago Center
Thu 11:48:19 AM 40.2842 -87.2100 167° South 471 542 35,900 968 Climbing Chicago Center
Thu 11:49:21 AM 40.1558 -87.1558 162° South 488 562 36,900 1,355 Climbing Chicago Center
Thu 11:50:23 AM 40.0431 -87.0508 145° Southeast 502 578 38,700 1,096 Climbing Chicago Center
Thu 11:51:16 AM 39.9389 -86.9425 141° Southeast 478 550 39,000 157 Climbing Indianapolis Center
Thu 11:52:18 AM 39.8383 -86.8394 142° Southeast 464 534 39,000  Level Indianapolis Center
Thu 11:53:19 AM 39.7375 -86.7375 142° Southeast 466 536 39,000  Level Indianapolis Center
Thu 11:54:21 AM 39.6369 -86.6342 142° Southeast 466 536 39,000  Level Indianapolis Center
Thu 11:55:23 AM 39.5364 -86.5333 142° Southeast 466 536 39,000  Level Indianapolis Center
Thu 11:56:25 AM 39.4164 -86.4111 142° Southeast 466 536 39,000  Level Indianapolis Center
Thu 11:57:26 AM 39.3158 -86.3103 142° Southeast 463 533 39,000  Level Indianapolis Center
Thu 11:58:28 AM 39.2144 -86.2086 142° Southeast 464 534 39,000  Level Indianapolis Center
Thu 11:59:30 AM 39.1136 -86.1078 142° Southeast 462 532 39,000  Level Indianapolis Center
Thu 12:00:31 PM 39.0117 -86.0061 142° Southeast 465 535 39,000  Level Indianapolis Center
Thu 12:01:33 PM 38.8906 -85.8844 142° Southeast 463 533 39,000  Level Indianapolis Center
Thu 12:02:35 PM 38.7883 -85.7864 143° Southeast 461 531 39,000  Level Indianapolis Center
Thu 12:03:37 PM 38.6889 -85.6869 142° Southeast 457 526 39,000  Level Indianapolis Center
Thu 12:04:39 PM 38.5792 -85.5803 143° Southeast 455 524 39,000  Level Indianapolis Center
Thu 12:05:40 PM 38.4786 -85.4833 143° Southeast 452 520 39,000  Level Indianapolis Center
Thu 12:06:42 PM 38.3781 -85.3844 142° Southeast 453 521 39,000  Level Indianapolis Center
Thu 12:07:44 PM 38.2758 -85.2867 143° Southeast 455 524 39,000  Level Indianapolis Center
Thu 12:08:46 PM 38.1614 -85.1764 143° Southeast 459 528 39,000  Level Indianapolis Center
Thu 12:09:47 PM 38.0592 -85.0783 143° Southeast 459 528 39,000 -390 Level Indianapolis Center
Thu 12:10:49 PM 37.9564 -84.9794 143° Southeast 463 533 38,200 -871 Descending Indianapolis Center
Thu 12:11:51 PM 37.8522 -84.8786 143° Southeast 469 540 37,200 -581 Descending Indianapolis Center
Thu 12:12:53 PM 37.7694 -84.7533 130° Southeast 471 542 37,000 -97 Descending Indianapolis Center
Thu 12:13:55 PM 37.6872 -84.6214 128° Southeast 473 544 37,000  Level Indianapolis Center
Thu 12:14:56 PM 37.6064 -84.4889 128° Southeast 476 548 37,000 -537 Level Indianapolis Center
Thu 12:15:58 PM 37.5044 -84.3383 130° Southeast 484 557 35,900 -968 Descending Indianapolis Center
Thu 12:17:00 PM 37.3928 -84.2444 146° Southeast 480 552 35,000 -1,258 Descending Indianapolis Center
Thu 12:18:02 PM 37.2814 -84.1514 146° Southeast 481 554 33,300 -1,854 Descending Indianapolis Center
Thu 12:19:03 PM 37.1714 -84.0589 146° Southeast 477 549 31,200 -2,049 Descending Indianapolis Center
Thu 12:20:05 PM 37.0656 -83.9697 146° Southeast 463 533 29,100 -2,032 Descending Indianapolis Center
Thu 12:21:07 PM 36.9611 -83.8828 146° Southeast 453 521 27,000 -2,226 Descending Indianapolis Center
Thu 12:22:09 PM 36.8456 -83.7858 146° Southeast 434 499 24,500 -1,452 Descending Indianapolis Center
Thu 12:23:11 PM 36.7492 -83.7067 147° Southeast 420 483 24,000 -244 Descending Indianapolis Center
Thu 12:24:12 PM 36.6686 -83.6042 134° Southeast 420 483 24,000  Level Indianapolis Center
Thu 12:25:14 PM 36.5878 -83.4939 132° Southeast 429 494 24,000  Level Indianapolis Center
Thu 12:26:16 PM 36.5075 -83.3844 132° Southeast 430 495 24,000  Level Indianapolis Center
Thu 12:26:46 PM 36.4631 -83.3289 135° Southeast 431 496 24,000  Level Atlanta Center
Thu 12:27:46 PM 36.3831 -83.2186 132° Southeast 431 496 24,000  Level Atlanta Center
Thu 12:28:46 PM 36.3050 -83.1086 131° Southeast 431 496 24,000 -400 Level Atlanta Center
Thu 12:29:46 PM 36.2228 -83.0014 134° Southeast 426 490 23,200 -750 Descending Atlanta Center
Thu 12:30:46 PM 36.1364 -82.9100 139° Southeast 420 483 22,500 -900 Descending Atlanta Center
Thu 12:31:46 PM 36.0439 -82.8267 144° Southeast 414 476 21,400 -1,050 Descending Atlanta Center
Thu 12:32:46 PM 35.9492 -82.7458 145° Southeast 403 464 20,400 -1,000 Descending Atlanta Center
Thu 12:33:46 PM 35.8586 -82.6653 144° Southeast 403 464 19,400 -800 Descending Atlanta Center
Thu 12:34:46 PM 35.7703 -82.5875 144° Southeast 403 464 18,800 -1,050 Descending Atlanta Center
Thu 12:35:46 PM 35.6922 -82.5175 144° Southeast 378 435 17,300 -1,650 Descending Atlanta Center
Thu 12:36:46 PM 35.6100 -82.4475 145° Southeast 359 413 15,500 -1,850 Descending Atlanta Center
Thu 12:37:46 PM 35.5317 -82.3775 144° Southeast 359 413 13,600 -1,650 Descending Atlanta Center
Thu 12:38:46 PM 35.4558 -82.3128 145° Southeast 354 407 12,200 -1,350 Descending Atlanta Center
Thu 12:39:46 PM 35.3758 -82.2686 156° South 324 373 10,900 -1,300 Descending Atlanta Center
Thu 12:40:46 PM 35.2944 -82.2600 175° South 304 350 9,600 -1,450 Descending Atlanta Center
Thu 12:41:46 PM 35.2128 -82.2517 175° South 292 336 8,000 -1,750 Descending Atlanta Center
Thu 12:42:46 PM 35.1317 -82.2558 182° South 292 336 6,100 -1,650 Descending Atlanta Center
Thu 12:43:46 PM 35.0583 -82.2372 168° South 251 289 4,700 -1,400 Descending Atlanta Center
Thu 12:44:46 PM 35.0156 -82.1825 134° Southeast 226 260 3,300 -700 Descending Atlanta Center
Thu 12:45:46 PM 34.9569 -82.1558 160° South 226 260 3,300  Level Atlanta Center
Thu 12:47:00 PM 34.8957 -82.2189 180° South  Level Estimated
Thu 12:54:00 PM 34.8957 -82.2189 180° South  Level Estimated
Thu 12:55:00 PM 34.8957 -82.2189 180° South  Level Estimated

Login

Don't have an account? Register now (free) for customized features, flight alerts, and more!